Time;durP1;ratioP1;P1;durP2;ratioP2;P2;SDS_P1;SDS_P2;PMS_P1;PMS_P2;Temp;Humidity;BMP_temperature;BMP_pressure;BME280_temperature;BME280_humidity;BME280_pressure;Samples;Min_cycle;Max_cycle;Signal;HPM_P1;HPM_P2
2023/11/05 00:01:07;;;;;;;;;;;7.60;99.90;;;;;;5121344;27;20501;-68
2023/11/05 00:03:32;;;;;;;9.88;1.25;;;7.60;99.90;;;;;;5105771;28;20340;-68
2023/11/05 00:05:58;;;;;;;6.43;1.17;;;7.60;99.90;;;;;;5109575;28;20119;-68
2023/11/05 00:08:23;;;;;;;4.03;1.23;;;7.60;99.90;;;;;;5112823;28;20036;-68
2023/11/05 00:10:49;;;;;;;10.95;1.42;;;7.50;99.90;;;;;;5106569;28;20587;-68
2023/11/05 00:13:14;;;;;;;9.77;1.65;;;7.50;99.90;;;;;;5117072;28;20054;-68
2023/11/05 00:15:40;;;;;;;6.18;1.45;;;7.50;99.90;;;;;;5121752;28;20043;-68
2023/11/05 00:18:06;;;;;;;5.40;1.30;;;7.60;99.90;;;;;;5102355;27;20047;-68
2023/11/05 00:20:31;;;;;;;14.77;1.92;;;7.60;99.90;;;;;;5103535;28;20039;-69
2023/11/05 00:22:57;;;;;;;7.90;1.40;;;7.60;99.90;;;;;;5103336;28;20141;-67
2023/11/05 00:25:23;;;;;;;;;;;7.60;99.90;;;;;;5100613;28;20457;-67
2023/11/05 00:27:48;;;;;;;6.07;1.30;;;7.70;99.90;;;;;;5099149;28;20220;-68
2023/11/05 00:30:14;;;;;;;5.25;1.20;;;7.70;99.90;;;;;;5098056;28;20036;-68
2023/11/05 00:32:40;;;;;;;12.13;1.88;;;7.80;99.90;;;;;;5096812;28;20534;-69
2023/11/05 00:35:06;;;;;;;6.43;1.40;;;7.80;99.90;;;;;;5098583;28;20043;-69
2023/11/05 00:37:31;;;;;;;17.50;2.28;;;7.80;99.90;;;;;;5098848;28;20116;-69
2023/11/05 00:39:57;;;;;;;;;;;7.80;99.90;;;;;;5090058;28;20200;-69
2023/11/05 00:42:23;;;;;;;13.10;2.63;;;7.80;99.90;;;;;;5100949;28;19932;-69
2023/11/05 00:44:51;;;;;;;;;;;7.90;99.90;;;;;;5095635;28;20052;-68
2023/11/05 00:47:16;;;;;;;11.70;1.50;;;7.90;99.90;;;;;;5098895;28;19927;-69
2023/11/05 00:49:42;;;;;;;7.45;1.30;;;7.90;99.90;;;;;;5097675;28;20554;-68
2023/11/05 00:52:07;;;;;;;;;;;7.90;99.90;;;;;;5103088;28;20033;-68
2023/11/05 00:54:33;;;;;;;13.05;1.77;;;7.90;99.90;;;;;;5097766;28;19919;-67
2023/11/05 00:56:59;;;;;;;;;;;7.90;99.90;;;;;;5095528;28;20069;-67
2023/11/05 00:59:24;;;;;;;15.82;2.15;;;7.90;99.90;;;;;;5103509;28;19919;-69
2023/11/05 01:01:50;;;;;;;9.70;1.30;;;7.90;99.90;;;;;;5096084;28;20452;-68
2023/11/05 01:04:16;;;;;;;13.50;1.63;;;8.00;99.90;;;;;;5105215;28;20051;-71
2023/11/05 01:06:42;;;;;;;;;;;8.00;99.90;;;;;;5093447;28;20527;-68
2023/11/05 01:09:07;;;;;;;9.65;1.65;;;8.00;99.90;;;;;;5104106;27;20010;-68
2023/11/05 01:11:33;;;;;;;;;;;8.00;99.90;;;;;;5090813;28;20131;-67
2023/11/05 01:14:00;;;;;;;5.65;1.77;;;7.90;99.90;;;;;;5084834;28;19923;-68
2023/11/05 01:16:25;;;;;;;15.43;1.98;;;7.90;99.90;;;;;;5088770;28;20055;-68
2023/11/05 01:18:53;;;;;;;;;;;7.90;99.90;;;;;;5089280;28;20093;-69
2023/11/05 01:21:19;;;;;;;10.35;1.63;;;7.90;99.90;;;;;;5084671;28;19942;-69
2023/11/05 01:23:45;;;;;;;;;;;8.00;99.90;;;;;;5086801;28;20044;-68
2023/11/05 01:26:11;;;;;;;10.25;1.83;;;8.00;99.90;;;;;;5094426;28;19995;-68
2023/11/05 01:28:36;;;;;;;9.05;1.13;;;8.00;99.90;;;;;;5100818;28;20043;-68
2023/11/05 01:31:02;;;;;;;;;;;8.00;99.90;;;;;;5098523;28;20047;-68
2023/11/05 01:33:28;;;;;;;14.50;1.55;;;8.00;99.90;;;;;;5093506;28;19969;-68
2023/11/05 01:35:53;;;;;;;8.35;1.58;;;8.00;99.90;;;;;;5090275;28;20036;-70
2023/11/05 01:38:19;;;;;;;12.27;2.42;;;7.90;99.90;;;;;;5099276;28;20042;-70
2023/11/05 01:40:44;;;;;;;13.32;1.48;;;7.90;99.90;;;;;;5092173;28;20119;-69
2023/11/05 01:43:10;;;;;;;;;;;7.90;99.90;;;;;;5094001;28;20040;-69
2023/11/05 01:45:36;;;;;;;9.95;1.73;;;7.90;99.90;;;;;;5087929;28;20005;-68
2023/11/05 01:48:01;;;;;;;;;;;7.90;99.90;;;;;;5086897;28;20396;-70
2023/11/05 01:50:27;;;;;;;9.88;1.33;;;7.90;99.90;;;;;;5096778;28;20420;-68
2023/11/05 01:52:55;;;;;;;;;;;7.90;99.90;;;;;;5103242;28;20069;-69
2023/11/05 01:55:25;;;;;;;6.57;1.40;;;7.90;99.90;;;;;;5097882;28;20371;-68
2023/11/05 01:57:52;;;;;;;15.05;2.00;;;7.90;99.90;;;;;;5103479;28;20118;-68
2023/11/05 02:00:18;;;;;;;10.77;1.35;;;7.90;99.90;;;;;;5102841;27;20059;-67
2023/11/05 02:02:44;;;;;;;10.18;1.85;;;8.00;99.90;;;;;;5098471;28;20086;-70
2023/11/05 02:05:10;;;;;;;9.90;1.45;;;8.00;99.90;;;;;;5104680;28;20063;-68
2023/11/05 02:07:36;;;;;;;11.77;1.23;;;8.00;99.90;;;;;;5096681;28;20044;-68
2023/11/05 02:10:03;;;;;;;9.95;1.60;;;8.00;99.90;;;;;;5103683;28;20047;-68
2023/11/05 02:12:29;;;;;;;10.73;1.80;;;8.00;99.90;;;;;;5104878;28;20160;-66
2023/11/05 02:14:55;;;;;;;12.02;2.03;;;8.00;99.90;;;;;;5095396;28;20127;-68
2023/11/05 02:17:21;;;;;;;;;;;8.00;99.90;;;;;;5098016;28;20577;-68
2023/11/05 02:19:47;;;;;;;11.05;1.52;;;8.00;99.90;;;;;;5099865;28;19915;-68
2023/11/05 02:22:15;;;;;;;6.70;1.17;;;8.00;99.90;;;;;;5101456;28;20044;-68
2023/11/05 02:24:45;;;;;;;9.50;1.58;;;8.00;99.90;;;;;;5103364;28;20036;-68
2023/11/05 02:27:11;;;;;;;6.97;1.35;;;8.00;99.90;;;;;;5096331;28;20613;-68
2023/11/05 02:29:36;;;;;;;5.05;1.35;;;8.00;99.90;;;;;;5099653;28;20043;-67
2023/11/05 02:32:05;;;;;;;;;;;8.10;99.90;;;;;;5094677;28;20559;-67
2023/11/05 02:34:31;;;;;;;8.32;1.20;;;8.10;99.90;;;;;;5105250;28;20422;-68
2023/11/05 02:36:58;;;;;;;4.93;0.60;;;8.00;99.90;;;;;;5097960;28;20052;-68
2023/11/05 02:39:25;;;;;;;4.82;0.75;;;8.00;99.90;;;;;;5100826;28;20044;-69
2023/11/05 02:41:52;;;;;;;4.22;0.80;;;8.00;99.90;;;;;;5094286;28;20087;-69
2023/11/05 02:44:18;;;;;;;3.33;0.80;;;8.10;99.90;;;;;;5105112;28;20151;-67
2023/11/05 02:46:43;;;;;;;6.35;0.93;;;8.10;99.90;;;;;;5092828;28;20060;-68
2023/11/05 02:49:09;;;;;;;;;;;8.10;99.90;;;;;;5085122;28;20028;-69
2023/11/05 02:51:35;;;;;;;2.53;0.30;;;8.10;99.90;;;;;;5099728;28;19923;-67
2023/11/05 02:54:01;;;;;;;;;;;8.10;99.90;;;;;;5097687;28;20575;-68
2023/11/05 02:56:27;;;;;;;1.70;0.32;;;8.10;99.90;;;;;;5098212;28;20375;-67
2023/11/05 02:58:52;;;;;;;;;;;8.00;99.90;;;;;;5100489;28;20058;-66
2023/11/05 03:01:27;;;;;;;3.70;0.47;;;8.00;99.90;;;;;;5095101;28;20338;-67
2023/11/05 03:03:53;;;;;;;1.00;0.30;;;8.00;99.90;;;;;;5099692;28;20043;-67
2023/11/05 03:06:20;;;;;;;2.28;0.40;;;8.10;99.90;;;;;;5095720;28;20032;-68
2023/11/05 03:08:46;;;;;;;2.60;0.40;;;8.10;99.90;;;;;;5098862;28;20541;-67
2023/11/05 03:11:11;;;;;;;0.73;0.40;;;8.10;99.90;;;;;;5100184;28;20052;-67
2023/11/05 03:13:37;;;;;;;;;;;8.00;99.90;;;;;;5100834;28;20042;-67
2023/11/05 03:16:05;;;;;;;2.38;0.40;;;8.00;99.90;;;;;;5102843;28;19915;-67
2023/11/05 03:18:30;;;;;;;0.73;0.30;;;8.00;99.90;;;;;;5096769;28;20039;-67
2023/11/05 03:20:57;;;;;;;;;;;8.00;99.90;;;;;;5100487;28;20043;-66
2023/11/05 03:23:22;;;;;;;0.57;0.20;;;8.00;99.90;;;;;;5102831;28;19927;-67
2023/11/05 03:25:48;;;;;;;;;;;8.00;99.90;;;;;;5104739;28;20039;-67
2023/11/05 03:28:13;;;;;;;0.90;0.20;;;8.00;99.90;;;;;;5102651;28;19927;-67
2023/11/05 03:30:39;;;;;;;3.10;0.47;;;8.00;99.90;;;;;;5100864;28;20044;-68
2023/11/05 03:33:05;;;;;;;;;;;8.00;99.90;;;;;;5085080;28;20036;-67
2023/11/05 03:35:31;;;;;;;1.20;0.30;;;7.90;99.90;;;;;;5085817;28;20330;-67
2023/11/05 03:37:57;;;;;;;2.75;0.30;;;7.90;99.90;;;;;;5093475;28;20105;-67
2023/11/05 03:40:22;;;;;;;6.80;0.30;;;8.00;99.90;;;;;;5085883;28;20052;-68
2023/11/05 03:42:48;;;;;;;;;;;7.90;99.90;;;;;;5091111;28;20036;-67
2023/11/05 03:45:14;;;;;;;1.27;0.20;;;8.00;99.90;;;;;;5085679;28;19924;-68
2023/11/05 03:47:40;;;;;;;0.68;0.20;;;8.00;99.90;;;;;;5086770;28;20094;-67
2023/11/05 03:50:06;;;;;;;0.10;0.10;;;8.00;99.90;;;;;;5085188;28;20453;-67
2023/11/05 03:52:32;;;;;;;0.55;0.20;;;7.90;99.90;;;;;;5089894;28;20111;-68
2023/11/05 03:54:58;;;;;;;0.95;0.20;;;8.00;99.90;;;;;;5089034;28;20806;-67
2023/11/05 03:57:23;;;;;;;0.93;0.25;;;8.00;99.90;;;;;;5092380;28;20048;-67
2023/11/05 03:59:49;;;;;;;1.50;0.20;;;8.00;99.90;;;;;;5089333;28;20043;-68
2023/11/05 04:02:15;;;;;;;0.20;0.20;;;8.00;99.90;;;;;;5102064;28;20046;-67
2023/11/05 04:04:40;;;;;;;;;;;8.00;99.90;;;;;;5109988;28;20039;-68
2023/11/05 04:07:07;;;;;;;1.10;0.35;;;8.00;99.90;;;;;;5108221;28;20034;-68
2023/11/05 04:09:33;;;;;;;0.50;0.25;;;8.00;99.90;;;;;;5107351;28;20069;-68
2023/11/05 04:11:59;;;;;;;0.32;0.15;;;8.00;99.90;;;;;;5107540;28;20042;-68
2023/11/05 04:14:25;;;;;;;;;;;8.00;99.90;;;;;;5101300;28;20499;-67
2023/11/05 04:16:51;;;;;;;0.47;0.43;;;8.00;99.90;;;;;;5100107;28;19922;-68
2023/11/05 04:19:16;;;;;;;0.85;0.30;;;8.00;99.90;;;;;;5107034;27;20493;-67
2023/11/05 04:21:42;;;;;;;0.30;0.20;;;8.00;99.90;;;;;;5107295;28;20047;-67
2023/11/05 04:24:08;;;;;;;;;;;8.00;99.90;;;;;;5107555;28;20046;-67
2023/11/05 04:26:33;;;;;;;0.10;0.10;;;8.00;99.90;;;;;;5109175;28;19923;-67
2023/11/05 04:28:59;;;;;;;;;;;8.00;99.90;;;;;;5107857;28;20387;-67
2023/11/05 04:31:25;;;;;;;0.30;0.17;;;8.00;99.90;;;;;;5095959;27;20333;-66
2023/11/05 04:33:51;;;;;;;0.75;0.20;;;8.00;99.90;;;;;;5087544;28;20062;-68
2023/11/05 04:36:17;;;;;;;0.20;0.20;;;8.00;99.90;;;;;;5085269;28;20127;-68
2023/11/05 04:38:42;;;;;;;1.13;0.10;;;8.00;99.90;;;;;;5085304;28;20131;-69
2023/11/05 04:41:08;;;;;;;;;;;8.00;99.90;;;;;;5087511;28;20408;-68
2023/11/05 04:43:34;;;;;;;2.53;0.10;;;8.00;99.90;;;;;;5081772;28;19920;-67
2023/11/05 04:45:59;;;;;;;;;;;8.10;99.90;;;;;;5088896;28;20059;-67
2023/11/05 04:48:25;;;;;;;0.40;0.10;;;8.10;99.90;;;;;;5086937;28;19977;-67
2023/11/05 04:50:51;;;;;;;1.92;0.20;;;8.10;99.90;;;;;;5088178;28;20497;-67
2023/11/05 04:53:17;;;;;;;;;;;8.10;99.90;;;;;;5080582;28;20546;-67
2023/11/05 04:55:44;;;;;;;0.85;0.10;;;8.10;99.90;;;;;;5081240;28;20454;-68
2023/11/05 04:58:09;;;;;;;0.30;0.10;;;8.10;99.90;;;;;;5086469;28;20046;-68
2023/11/05 05:00:35;;;;;;;;;;;8.10;99.90;;;;;;5087048;28;20036;-67
2023/11/05 05:03:01;;;;;;;0.32;0.13;;;8.10;99.90;;;;;;5086601;28;20030;-67
2023/11/05 05:05:27;;;;;;;1.50;0.25;;;8.10;99.90;;;;;;5079835;28;20113;-69
2023/11/05 05:07:53;;;;;;;0.17;0.10;;;8.10;99.90;;;;;;5086950;28;20035;-69
2023/11/05 05:10:18;;;;;;;;;;;8.10;99.90;;;;;;5086282;28;20089;-68
2023/11/05 05:12:44;;;;;;;0.20;0.10;;;8.10;99.90;;;;;;5084315;28;19920;-67
2023/11/05 05:15:09;;;;;;;;;;;8.10;99.90;;;;;;5080553;28;20495;-69
2023/11/05 05:17:35;;;;;;;0.95;0.15;;;8.20;99.90;;;;;;5084126;28;19927;-68
2023/11/05 05:20:02;;;;;;;0.10;0.10;;;8.10;99.90;;;;;;5086791;28;20024;-67
2023/11/05 05:22:28;;;;;;;3.25;0.10;;;8.10;99.90;;;;;;5086408;28;20484;-67
2023/11/05 05:24:53;;;;;;;;;;;8.20;99.90;;;;;;5080892;28;20036;-67
2023/11/05 05:27:19;;;;;;;0.20;0.10;;;8.20;99.90;;;;;;5080607;28;19960;-67
2023/11/05 05:29:45;;;;;;;1.00;0.10;;;8.20;99.90;;;;;;5081093;28;20071;-68
2023/11/05 05:32:11;;;;;;;1.67;0.13;;;8.20;99.90;;;;;;5101456;28;20035;-68
2023/11/05 05:34:36;;;;;;;2.80;0.30;;;8.20;99.90;;;;;;5103197;28;20085;-68
2023/11/05 05:37:02;;;;;;;2.05;0.30;;;8.20;99.90;;;;;;5104428;28;20743;-67
2023/11/05 05:39:28;;;;;;;;;;;8.10;99.90;;;;;;5106360;28;20070;-67
2023/11/05 05:41:55;;;;;;;0.60;0.30;;;8.10;99.90;;;;;;5104666;28;19919;-68
2023/11/05 05:44:20;;;;;;;0.28;0.20;;;8.10;99.90;;;;;;5099323;28;20035;-66
2023/11/05 05:46:46;;;;;;;;;;;8.10;99.90;;;;;;5101876;28;20046;-68
2023/11/05 05:49:11;;;;;;;0.73;0.35;;;8.10;99.90;;;;;;5101989;28;19981;-67
2023/11/05 05:51:37;;;;;;;;;;;8.10;99.90;;;;;;5107987;28;20043;-67
2023/11/05 05:54:03;;;;;;;1.75;0.40;;;8.10;99.90;;;;;;5100235;28;20624;-67
2023/11/05 05:56:28;;;;;;;;;;;8.10;99.90;;;;;;5108063;28;20081;-68
2023/11/05 05:58:54;;;;;;;0.90;0.28;;;8.10;99.90;;;;;;5104356;28;19955;-67
2023/11/05 06:01:19;;;;;;;;;;;8.10;99.90;;;;;;5094811;28;20568;-66
2023/11/05 06:03:47;;;;;;;0.20;0.20;;;8.10;99.90;;;;;;5084986;28;19954;-67
2023/11/05 06:06:12;;;;;;;0.57;0.20;;;8.10;99.90;;;;;;5086218;28;20047;-67
2023/11/05 06:08:38;;;;;;;0.20;0.20;;;8.10;99.90;;;;;;5086738;28;20519;-67
2023/11/05 06:11:04;;;;;;;;;;;8.10;99.90;;;;;;5085829;28;20040;-66
2023/11/05 06:13:29;;;;;;;0.20;0.20;;;8.10;99.90;;;;;;5081952;28;19916;-68
2023/11/05 06:15:55;;;;;;;;;;;8.10;99.90;;;;;;5083002;28;20047;-66
2023/11/05 06:18:20;;;;;;;3.00;0.20;;;8.10;99.90;;;;;;5084493;28;19930;-63
2023/11/05 06:20:46;;;;;;;1.23;0.20;;;8.10;99.90;;;;;;5084996;28;20036;-69
2023/11/05 06:23:12;;;;;;;;;;;8.10;99.90;;;;;;5081979;28;20036;-70
2023/11/05 06:25:38;;;;;;;2.45;0.40;;;8.10;99.90;;;;;;5083624;28;19965;-65
2023/11/05 06:28:03;;;;;;;0.63;0.20;;;8.10;99.90;;;;;;5085234;28;20036;-66
2023/11/05 06:30:29;;;;;;;0.57;0.25;;;8.10;99.90;;;;;;5086636;27;20207;-65
2023/11/05 06:32:54;;;;;;;;;;;8.10;99.90;;;;;;5106336;28;20039;-66
2023/11/05 06:35:20;;;;;;;1.00;0.30;;;8.10;99.90;;;;;;5105956;28;19919;-64
2023/11/05 06:37:45;;;;;;;3.40;0.43;;;8.10;99.90;;;;;;5106482;27;20039;-65
2023/11/05 06:40:11;;;;;;;;;;;8.10;99.90;;;;;;5103325;28;20047;-64
2023/11/05 06:42:37;;;;;;;0.68;0.30;;;8.10;99.90;;;;;;5104596;28;19969;-64
2023/11/05 06:45:03;;;;;;;1.55;0.50;;;8.10;99.90;;;;;;5106472;28;20036;-66
2023/11/05 06:47:29;;;;;;;2.05;0.30;;;8.10;99.90;;;;;;5105959;28;20075;-65
2023/11/05 06:49:55;;;;;;;0.85;0.40;;;8.10;99.90;;;;;;5111305;27;20058;-65
2023/11/05 06:52:20;;;;;;;;;;;8.20;99.90;;;;;;5101494;28;20123;-65
2023/11/05 06:54:46;;;;;;;0.40;0.40;;;8.10;99.90;;;;;;5099846;28;19986;-67
2023/11/05 06:57:12;;;;;;;1.75;0.20;;;8.20;99.90;;;;;;5106032;28;20035;-64
2023/11/05 06:59:37;;;;;;;0.50;0.30;;;8.20;99.90;;;;;;5100645;28;20051;-69
2023/11/05 07:02:03;;;;;;;0.95;0.30;;;8.10;99.90;;;;;;5087100;28;20040;-65
2023/11/05 07:04:29;;;;;;;0.43;0.20;;;8.20;99.90;;;;;;5085472;28;20115;-66
2023/11/05 07:06:55;;;;;;;3.63;0.30;;;8.10;99.90;;;;;;5082671;28;20044;-66
2023/11/05 07:09:21;;;;;;;;;;;8.10;99.90;;;;;;5078243;28;20035;-67
2023/11/05 07:11:46;;;;;;;1.83;0.35;;;8.10;99.90;;;;;;5087224;28;20430;-65
2023/11/05 07:14:13;;;;;;;;;;;8.00;99.90;;;;;;5081654;28;20123;-67
2023/11/05 07:16:38;;;;;;;11.43;5.40;;;8.00;99.90;;;;;;5086063;28;20371;-67
2023/11/05 07:19:04;;;;;;;29.13;12.82;;;8.00;99.90;;;;;;5083806;28;20043;-66
2023/11/05 07:21:29;;;;;;;;;;;8.00;99.90;;;;;;5082333;28;20047;-67
2023/11/05 07:23:55;;;;;;;4.57;1.75;;;8.00;99.90;;;;;;5078175;28;20375;-64
2023/11/05 07:26:21;;;;;;;2.45;1.40;;;8.00;99.90;;;;;;5081810;28;20044;-68
2023/11/05 07:28:47;;;;;;;1.27;0.45;;;8.10;99.90;;;;;;5082293;28;20032;-66
2023/11/05 07:31:19;;;;;;;2.40;0.65;;;8.10;99.90;;;;;;5096505;28;20415;-64
2023/11/05 07:33:45;;;;;;;0.93;0.43;;;8.10;99.90;;;;;;5107413;28;20044;-65
2023/11/05 07:36:11;;;;;;;1.23;0.45;;;8.20;99.90;;;;;;5108891;28;20115;-66
2023/11/05 07:38:38;;;;;;;2.35;0.30;;;8.20;99.90;;;;;;5108394;28;20038;-65
2023/11/05 07:41:05;;;;;;;0.85;0.57;;;8.30;99.90;;;;;;5105657;28;20055;-65
2023/11/05 07:43:31;;;;;;;2.60;0.50;;;8.30;99.90;;;;;;5109038;28;20126;-66
2023/11/05 07:45:57;;;;;;;1.80;0.68;;;8.40;99.90;;;;;;5109966;28;20051;-66
2023/11/05 07:48:22;;;;;;;;;;;8.40;99.90;;;;;;5104617;28;20044;-65
2023/11/05 07:50:50;;;;;;;1.08;0.17;;;8.40;99.90;;;;;;5110066;28;19915;-67
2023/11/05 07:53:16;;;;;;;0.50;0.20;;;8.40;99.90;;;;;;5105867;28;20066;-66
2023/11/05 07:55:42;;;;;;;0.63;0.20;;;8.50;99.90;;;;;;5110069;28;20032;-65
2023/11/05 07:58:08;;;;;;;;;;;8.50;99.90;;;;;;5100601;28;20611;-66
2023/11/05 08:00:34;;;;;;;0.63;0.13;;;8.60;99.90;;;;;;5093909;27;20386;-65
2023/11/05 08:03:05;;;;;;;0.68;0.10;;;8.60;99.90;;;;;;5095194;28;20038;-65
2023/11/05 08:05:30;;;;;;;0.80;0.10;;;8.70;99.90;;;;;;5100631;28;20514;-67
2023/11/05 08:07:56;;;;;;;;;;;8.60;99.90;;;;;;5095474;28;20119;-64
2023/11/05 08:10:22;;;;;;;0.40;0.20;;;8.70;99.90;;;;;;5096683;28;19978;-65
2023/11/05 08:12:47;;;;;;;0.68;0.20;;;8.70;99.90;;;;;;5097309;28;20048;-65
2023/11/05 08:15:13;;;;;;;0.60;0.22;;;8.80;99.90;;;;;;5104568;28;20123;-66
2023/11/05 08:17:39;;;;;;;2.33;0.28;;;8.80;99.90;;;;;;5100633;28;20044;-65
2023/11/05 08:20:05;;;;;;;;;;;8.80;99.90;;;;;;5100122;28;20097;-70
2023/11/05 08:22:31;;;;;;;1.58;0.20;;;8.80;99.90;;;;;;5100123;28;19923;-65
2023/11/05 08:24:58;;;;;;;1.33;0.20;;;8.80;99.90;;;;;;5099554;28;20035;-66
2023/11/05 08:27:24;;;;;;;0.52;0.25;;;8.80;99.90;;;;;;5098122;28;20043;-67
2023/11/05 08:29:49;;;;;;;;;;;8.90;99.90;;;;;;5099167;28;20039;-65
2023/11/05 08:32:17;;;;;;;1.55;0.50;;;9.00;99.90;;;;;;5085271;27;19923;-65
2023/11/05 08:34:43;;;;;;;0.93;0.30;;;9.00;99.90;;;;;;5083634;28;20500;-65
2023/11/05 08:37:08;;;;;;;;;;;9.00;99.90;;;;;;5081087;28;20051;-65
2023/11/05 08:39:34;;;;;;;1.05;0.20;;;9.10;99.90;;;;;;5085764;28;19923;-66
2023/11/05 08:42:00;;;;;;;1.20;0.20;;;9.00;99.90;;;;;;5084350;28;20036;-66
2023/11/05 08:44:26;;;;;;;;;;;8.90;99.90;;;;;;5089661;28;20036;-66
2023/11/05 08:46:51;;;;;;;2.05;0.30;;;8.90;99.90;;;;;;5088554;28;20014;-66
2023/11/05 08:49:18;;;;;;;1.30;0.20;;;8.90;99.90;;;;;;5088569;28;20093;-65
2023/11/05 08:51:45;;;;;;;2.28;0.52;;;8.80;99.90;;;;;;5088477;28;20039;-65
2023/11/05 08:54:11;;;;;;;0.52;0.30;;;8.80;99.90;;;;;;5083987;28;20466;-65
2023/11/05 08:56:38;;;;;;;;;;;8.80;99.90;;;;;;5087060;28;20044;-65
2023/11/05 08:59:04;;;;;;;0.47;0.20;;;8.90;99.90;;;;;;5084442;28;19927;-65
2023/11/05 09:01:30;;;;;;;1.27;0.32;;;8.90;99.90;;;;;;5086340;28;20039;-66
2023/11/05 09:03:56;;;;;;;;;;;8.90;99.90;;;;;;5084164;28;20050;-66
2023/11/05 09:06:23;;;;;;;1.37;0.30;;;8.90;99.90;;;;;;5084897;28;20415;-66
2023/11/05 09:08:49;;;;;;;1.45;0.47;;;8.90;99.90;;;;;;5086631;28;20040;-66
2023/11/05 09:11:14;;;;;;;;;;;8.90;99.90;;;;;;5086717;28;20315;-66
2023/11/05 09:13:40;;;;;;;0.45;0.20;;;8.90;99.90;;;;;;5085092;28;19927;-65
2023/11/05 09:16:06;;;;;;;;;;;8.90;99.90;;;;;;5087795;28;20051;-66
2023/11/05 09:18:32;;;;;;;0.47;0.20;;;8.90;99.90;;;;;;5084030;28;19915;-65
2023/11/05 09:20:59;;;;;;;0.75;0.30;;;8.90;99.90;;;;;;5084556;28;20536;-65
2023/11/05 09:23:25;;;;;;;1.83;0.60;;;8.90;99.90;;;;;;5085778;28;20032;-66
2023/11/05 09:25:51;;;;;;;0.57;0.30;;;8.90;99.90;;;;;;5087848;28;20185;-68
2023/11/05 09:28:16;;;;;;;;;;;8.90;99.90;;;;;;5087882;28;20519;-66
2023/11/05 09:30:43;;;;;;;0.20;0.20;;;8.90;99.90;;;;;;5086303;28;19920;-66
2023/11/05 09:33:09;;;;;;;0.73;0.20;;;8.90;99.90;;;;;;5084986;28;20522;-66
2023/11/05 09:35:35;;;;;;;0.35;0.20;;;9.00;99.90;;;;;;5085065;28;20098;-67
2023/11/05 09:38:02;;;;;;;;;;;9.00;99.90;;;;;;5089770;28;20495;-66
2023/11/05 09:40:27;;;;;;;1.27;0.40;;;9.00;99.90;;;;;;5086390;28;20381;-66
2023/11/05 09:42:53;;;;;;;;;;;9.00;99.90;;;;;;5086236;28;20040;-67
2023/11/05 09:45:19;;;;;;;0.40;0.10;;;9.00;99.90;;;;;;5087007;28;20436;-66
2023/11/05 09:47:44;;;;;;;;;;;9.10;99.90;;;;;;5085134;28;20066;-66
2023/11/05 09:50:12;;;;;;;1.08;0.63;;;9.10;99.90;;;;;;5087188;28;20778;-65
2023/11/05 09:52:43;;;;;;;0.17;0.10;;;9.10;99.90;;;;;;5085816;28;20115;-67
2023/11/05 09:55:09;;;;;;;0.25;0.20;;;9.10;99.90;;;;;;5086510;28;20093;-66
2023/11/05 09:57:36;;;;;;;;;;;9.10;99.90;;;;;;5086331;28;20052;-66
2023/11/05 10:00:04;;;;;;;0.45;0.17;;;9.10;99.90;;;;;;5087487;28;19915;-66
2023/11/05 10:02:56;;;;;;;0.17;0.10;;;9.10;99.90;;;;;;5083403;28;20040;-66
2023/11/05 10:05:32;;;;;;;0.40;0.30;;;9.10;99.90;;;;;;5076600;28;20719;-67
2023/11/05 10:07:58;;;;;;;0.10;0.10;;;9.10;99.90;;;;;;5082002;28;20592;-66
2023/11/05 10:10:24;;;;;;;0.55;0.30;;;9.20;99.90;;;;;;5085502;28;20040;-67
2023/11/05 10:12:50;;;;;;;0.22;0.20;;;9.30;99.90;;;;;;5085372;28;20081;-65
2023/11/05 10:15:18;;;;;;;0.77;0.30;;;9.30;99.90;;;;;;5087031;28;20093;-67
2023/11/05 10:17:44;;;;;;;3.33;0.25;;;9.40;99.90;;;;;;5083798;28;20044;-66
2023/11/05 10:20:10;;;;;;;;;;;9.50;99.90;;;;;;5082442;28;20039;-65
2023/11/05 10:22:43;;;;;;;1.25;0.57;;;9.50;99.90;;;;;;5084193;28;20082;-66
2023/11/05 10:25:21;;;;;;;0.88;0.38;;;9.50;99.90;;;;;;5082777;28;20033;-66
2023/11/05 10:27:47;;;;;;;2.55;0.50;;;9.50;99.90;;;;;;5084189;28;20505;-66
2023/11/05 10:30:15;;;;;;;1.48;0.20;;;9.50;99.90;;;;;;5082303;28;20041;-68
2023/11/05 10:32:42;;;;;;;5.05;0.25;;;9.50;99.90;;;;;;5086240;28;20101;-67
2023/11/05 10:35:09;;;;;;;4.47;0.30;;;9.60;99.90;;;;;;5084027;28;20085;-65
2023/11/05 10:37:35;;;;;;;1.63;0.40;;;9.60;99.90;;;;;;5085224;28;20044;-67
2023/11/05 10:40:05;;;;;;;4.82;0.40;;;9.60;99.90;;;;;;5084380;28;20055;-66
2023/11/05 10:42:33;;;;;;;1.52;0.20;;;9.50;99.90;;;;;;5085475;28;20040;-68
2023/11/05 10:45:00;;;;;;;1.23;0.40;;;9.50;99.90;;;;;;5086272;28;20448;-66
2023/11/05 10:47:27;;;;;;;1.13;0.65;;;9.50;99.90;;;;;;5084841;28;20109;-66
2023/11/05 10:49:57;;;;;;;8.50;0.90;;;9.50;99.90;;;;;;5089884;28;20047;-66
2023/11/05 10:52:25;;;;;;;2.45;0.30;;;9.40;99.90;;;;;;5085179;28;20048;-67
2023/11/05 10:55:07;;;;;;;2.92;0.63;;;9.40;99.90;;;;;;5087950;28;20519;-67
2023/11/05 10:57:43;;;;;;;2.30;0.57;;;9.60;99.90;;;;;;5085462;28;20067;-66
2023/11/05 11:00:27;;;;;;;3.65;0.50;;;9.60;99.90;;;;;;5087935;28;20042;-65
2023/11/05 11:02:58;;;;;;;2.80;0.50;;;9.70;99.90;;;;;;5104405;28;20040;-65
2023/11/05 11:05:43;;;;;;;1.60;0.45;;;9.60;99.90;;;;;;5103300;28;20571;-67
2023/11/05 11:08:16;;;;;;;3.08;0.70;;;9.60;99.90;;;;;;5105456;28;20089;-66
2023/11/05 11:10:45;;;;;;;4.97;0.80;;;9.60;99.90;;;;;;5106130;28;20130;-66
2023/11/05 11:13:11;;;;;;;2.67;0.52;;;9.60;99.90;;;;;;5104886;28;20041;-67
2023/11/05 11:15:37;;;;;;;;;;;9.60;99.90;;;;;;5097599;28;20418;-66
2023/11/05 11:18:03;;;;;;;3.33;0.83;;;9.70;99.90;;;;;;5104012;28;19924;-66
2023/11/05 11:20:32;;;;;;;4.43;0.68;;;9.80;99.90;;;;;;5105261;28;20376;-67
2023/11/05 11:23:04;;;;;;;4.00;0.60;;;9.90;99.90;;;;;;5105058;28;20572;-67
2023/11/05 11:25:33;;;;;;;2.85;0.50;;;10.00;99.90;;;;;;5107836;28;20544;-67
2023/11/05 11:28:00;;;;;;;1.67;0.43;;;10.00;99.90;;;;;;5106493;28;20048;-65
2023/11/05 11:30:26;;;;;;;0.88;0.22;;;10.00;99.90;;;;;;5102438;28;20054;-65
2023/11/05 11:32:55;;;;;;;1.02;0.20;;;10.00;99.90;;;;;;5085027;28;20071;-64
2023/11/05 11:35:21;;;;;;;1.45;0.30;;;9.90;99.90;;;;;;5078619;28;20115;-68
2023/11/05 11:37:46;;;;;;;;;;;9.90;99.90;;;;;;5085757;28;20127;-66
2023/11/05 11:40:13;;;;;;;2.08;0.30;;;9.90;99.90;;;;;;5085385;28;19916;-64
2023/11/05 11:42:39;;;;;;;3.33;0.45;;;9.90;99.90;;;;;;5084257;28;20093;-67
2023/11/05 11:45:05;;;;;;;;;;;9.80;99.90;;;;;;5080314;28;20040;-66
2023/11/05 11:47:32;;;;;;;2.33;0.30;;;9.80;99.90;;;;;;5082446;28;19952;-65
2023/11/05 11:50:05;;;;;;;2.83;0.32;;;9.70;99.90;;;;;;5078815;28;20851;-65
2023/11/05 11:52:33;;;;;;;1.70;0.30;;;9.70;99.90;;;;;;5080679;28;20089;-67
2023/11/05 11:54:58;;;;;;;0.73;0.22;;;9.70;99.90;;;;;;5083562;28;20044;-66
2023/11/05 11:57:26;;;;;;;;;;;9.60;99.90;;;;;;5081572;28;20079;-66
2023/11/05 11:59:51;;;;;;;;;;;9.70;99.90;;;;;;5080627;28;19916;-67
2023/11/05 12:02:17;;;;;;;0.98;0.30;;;9.70;99.90;;;;;;5099191;28;20421;-67
2023/11/05 12:04:43;;;;;;;0.90;0.30;;;9.70;99.90;;;;;;5098629;28;20044;-66
2023/11/05 12:07:09;;;;;;;;;;;9.70;99.90;;;;;;5097813;28;20039;-67
2023/11/05 12:09:34;;;;;;;0.10;0.10;;;9.60;99.90;;;;;;5106790;28;19986;-66
2023/11/05 12:12:01;;;;;;;;;;;9.60;99.90;;;;;;5103934;28;20133;-65
2023/11/05 12:14:30;;;;;;;0.80;0.20;;;9.50;99.90;;;;;;5107949;28;20445;-67
2023/11/05 12:16:55;;;;;;;1.00;0.10;;;9.40;99.90;;;;;;5105460;28;20057;-66
2023/11/05 12:19:21;;;;;;;;;;;9.30;99.90;;;;;;5109336;28;20035;-66
2023/11/05 12:21:49;;;;;;;2.03;0.28;;;9.30;99.90;;;;;;5109777;28;19922;-64
2023/11/05 12:24:15;;;;;;;1.75;0.30;;;9.20;99.90;;;;;;5108484;28;20127;-66
2023/11/05 12:26:41;;;;;;;3.83;0.28;;;9.10;99.90;;;;;;5109599;28;20055;-65
2023/11/05 12:29:11;;;;;;;0.65;0.20;;;9.10;99.90;;;;;;5108122;28;20111;-66
2023/11/05 12:31:37;;;;;;;2.15;0.68;;;9.10;99.90;;;;;;5093602;27;20079;-65
2023/11/05 12:34:03;;;;;;;0.40;0.30;;;9.10;99.90;;;;;;5088126;28;20742;-66
2023/11/05 12:36:29;;;;;;;;;;;9.10;99.90;;;;;;5089852;28;20126;-66
2023/11/05 12:38:56;;;;;;;1.50;0.40;;;9.10;99.90;;;;;;5088050;28;20295;-66
2023/11/05 12:41:21;;;;;;;0.68;0.40;;;9.10;99.90;;;;;;5079220;28;20036;-67
2023/11/05 12:43:47;;;;;;;;;;;9.00;99.90;;;;;;5084622;28;20062;-66
2023/11/05 12:46:12;;;;;;;2.28;0.70;;;9.00;99.90;;;;;;5088009;28;19984;-65
2023/11/05 12:48:38;;;;;;;1.23;0.80;;;9.00;99.90;;;;;;5088612;28;20435;-65
2023/11/05 12:51:04;;;;;;;;;;;9.10;99.90;;;;;;5096958;28;20047;-65
2023/11/05 12:53:31;;;;;;;1.45;0.88;;;9.10;99.90;;;;;;5087133;28;19924;-66
2023/11/05 12:55:59;;;;;;;1.02;0.60;;;9.00;99.90;;;;;;5088636;28;20043;-66
2023/11/05 12:58:25;;;;;;;1.20;0.80;;;9.10;99.90;;;;;;5094740;28;20040;-66
2023/11/05 13:00:51;;;;;;;;;;;9.10;99.90;;;;;;5096161;27;20038;-66
2023/11/05 13:03:17;;;;;;;1.73;0.68;;;9.10;99.90;;;;;;5107499;27;19915;-66
2023/11/05 13:05:43;;;;;;;;;;;9.10;99.90;;;;;;5108392;28;20043;-65
2023/11/05 13:08:09;;;;;;;2.25;0.60;;;9.10;99.90;;;;;;5115669;27;19927;-66
2023/11/05 13:10:37;;;;;;;1.27;0.52;;;9.00;99.90;;;;;;5116494;27;20047;-65
2023/11/05 13:13:03;;;;;;;0.50;0.40;;;9.00;99.90;;;;;;5106148;28;20039;-66